createdAt,value
2023-03-26T00:01:23.484Z,95140.91
2023-03-26T00:03:54.511Z,95142.78
2023-03-26T00:06:24.797Z,95135.00
2023-03-26T00:08:53.847Z,95134.94
2023-03-26T00:11:23.635Z,95134.56
2023-03-26T00:13:53.548Z,95141.91
2023-03-26T00:16:22.429Z,95127.22
2023-03-26T00:18:51.542Z,95135.44
2023-03-26T00:21:21.503Z,95131.69
2023-03-26T00:23:49.587Z,95130.91
2023-03-26T00:26:18.704Z,95128.03
2023-03-26T00:28:46.196Z,95119.28
2023-03-26T00:31:15.860Z,95121.00
2023-03-26T00:33:44.814Z,95126.00
2023-03-26T00:36:16.591Z,95121.78
2023-03-26T00:38:44.763Z,95115.16
2023-03-26T00:41:23.120Z,95108.41
2023-03-26T00:43:53.257Z,95109.38
2023-03-26T00:46:21.103Z,95115.38
2023-03-26T00:48:50.587Z,95104.00
2023-03-26T00:51:19.556Z,95103.78
2023-03-26T00:53:48.692Z,95092.97
2023-03-26T00:56:16.496Z,95079.75
2023-03-26T00:58:44.356Z,95099.56
2023-03-26T01:01:15.502Z,95089.03
2023-03-26T01:03:56.714Z,95069.75
2023-03-26T01:06:36.184Z,95095.41
2023-03-26T01:09:10.993Z,95087.84
2023-03-26T01:11:38.531Z,95072.16
2023-03-26T01:14:12.441Z,95054.47
2023-03-26T01:16:44.811Z,95072.63
2023-03-26T01:19:21.104Z,95078.03
2023-03-26T01:21:50.261Z,95073.16
2023-03-26T01:24:19.175Z,95072.88
2023-03-26T01:27:17.643Z,95069.75
2023-03-26T01:29:52.443Z,95064.31
2023-03-26T01:32:28.611Z,95062.22
2023-03-26T01:35:14.010Z,95066.69
2023-03-26T01:37:52.685Z,95060.97
2023-03-26T01:40:26.902Z,95056.56
2023-03-26T01:43:01.448Z,95046.47
2023-03-26T01:45:33.362Z,95040.28
2023-03-26T01:48:01.325Z,95029.00
2023-03-26T01:50:28.768Z,95014.78
2023-03-26T01:52:56.198Z,95036.50
2023-03-26T01:55:29.188Z,95007.88
2023-03-26T01:58:03.671Z,95037.53
2023-03-26T02:00:34.333Z,95035.22
2023-03-26T02:03:19.000Z,95031.63
2023-03-26T02:05:52.380Z,95022.63
2023-03-26T02:08:24.765Z,95019.78
2023-03-26T02:10:57.795Z,95006.38
2023-03-26T02:13:26.333Z,94996.09
2023-03-26T02:15:59.624Z,94998.69
2023-03-26T02:18:36.543Z,94995.13
2023-03-26T02:21:09.931Z,94979.81
2023-03-26T02:23:38.390Z,94983.69
2023-03-26T02:26:09.048Z,94975.19
2023-03-26T02:28:36.771Z,94974.44
2023-03-26T02:31:04.732Z,94960.19
2023-03-26T02:33:33.316Z,94951.91
2023-03-26T02:36:01.768Z,94965.66
2023-03-26T02:38:29.753Z,94954.22
2023-03-26T02:40:57.255Z,94957.84
2023-03-26T02:43:27.142Z,94927.66
2023-03-26T02:45:55.097Z,94939.34
2023-03-26T02:48:22.792Z,94925.81
2023-03-26T02:50:54.228Z,94931.09
2023-03-26T02:53:23.804Z,94931.66
2023-03-26T02:55:51.448Z,94928.31
2023-03-26T02:58:19.971Z,94916.47
2023-03-26T03:00:50.687Z,94908.97
2023-03-26T03:03:18.271Z,94888.94
2023-03-26T03:05:45.729Z,94902.94
2023-03-26T03:08:13.268Z,94904.50
2023-03-26T03:10:41.064Z,94894.66
2023-03-26T03:13:08.501Z,94890.00
2023-03-26T03:15:36.130Z,94857.81
2023-03-26T03:18:05.050Z,94876.81
2023-03-26T03:20:35.027Z,94863.97
2023-03-26T03:23:02.570Z,94861.69
2023-03-26T03:25:30.125Z,94848.47
2023-03-26T03:27:57.562Z,94861.81
2023-03-26T03:30:25.204Z,94851.44
2023-03-26T03:32:52.726Z,94855.09
2023-03-26T03:35:21.689Z,94855.84
2023-03-26T03:37:49.210Z,94847.63
2023-03-26T03:40:16.698Z,94848.97
2023-03-26T03:42:44.199Z,94847.44
2023-03-26T03:45:12.227Z,94827.78
2023-03-26T03:47:39.891Z,94832.75
2023-03-26T03:50:09.171Z,94825.28
2023-03-26T03:52:38.160Z,94820.84
2023-03-26T03:55:06.362Z,94821.88
2023-03-26T03:57:34.646Z,94804.06
2023-03-26T04:00:03.203Z,94824.03
2023-03-26T04:02:34.927Z,94812.66
2023-03-26T04:05:03.535Z,94817.84
2023-03-26T04:07:32.155Z,94798.94
2023-03-26T04:10:02.746Z,94786.00
2023-03-26T04:12:31.310Z,94784.50
2023-03-26T04:14:59.632Z,94781.41
2023-03-26T04:17:30.242Z,94761.13
2023-03-26T04:19:57.814Z,94750.47
2023-03-26T04:22:36.307Z,94762.50
2023-03-26T04:25:05.548Z,94758.91
2023-03-26T04:27:35.367Z,94744.50
2023-03-26T04:30:03.744Z,94747.03
2023-03-26T04:32:33.966Z,94726.34
2023-03-26T04:35:03.877Z,94737.22
2023-03-26T04:37:34.725Z,94724.81
2023-03-26T04:40:02.333Z,94720.69
2023-03-26T04:42:33.249Z,94721.19
2023-03-26T04:45:02.959Z,94717.72
2023-03-26T04:47:30.562Z,94711.31
2023-03-26T04:49:58.176Z,94693.13
2023-03-26T04:52:25.842Z,94696.47
2023-03-26T04:54:53.545Z,94700.59
2023-03-26T04:57:26.149Z,94688.13
2023-03-26T04:59:55.026Z,94684.22
2023-03-26T05:02:23.010Z,94699.09
2023-03-26T05:04:50.524Z,94685.13
2023-03-26T05:07:20.225Z,94681.69
2023-03-26T05:09:47.892Z,94675.47
2023-03-26T05:12:16.298Z,94675.53
2023-03-26T05:14:43.757Z,94657.94
2023-03-26T05:17:18.678Z,94653.56
2023-03-26T05:19:46.975Z,94649.91
2023-03-26T05:22:14.746Z,94648.34
2023-03-26T05:24:43.286Z,94651.41
2023-03-26T05:27:15.059Z,94651.69
2023-03-26T05:29:42.535Z,94636.72
2023-03-26T05:32:10.377Z,94646.81
2023-03-26T05:34:39.510Z,94645.53
2023-03-26T05:37:07.005Z,94639.06
2023-03-26T05:39:35.518Z,94636.22
2023-03-26T05:42:03.177Z,94636.97
2023-03-26T05:44:30.674Z,94609.69
2023-03-26T05:46:58.092Z,94629.72
2023-03-26T05:49:25.743Z,94619.84
2023-03-26T05:51:55.535Z,94625.00
2023-03-26T05:54:23.063Z,94624.03
2023-03-26T05:56:50.579Z,94611.38
2023-03-26T05:59:18.004Z,94604.91
2023-03-26T06:01:45.595Z,94603.09
2023-03-26T06:04:13.578Z,94593.75
2023-03-26T06:06:41.177Z,94602.31
2023-03-26T06:09:11.938Z,94579.00
2023-03-26T06:11:40.105Z,94597.41
2023-03-26T06:14:07.793Z,94596.72
2023-03-26T06:16:35.323Z,94561.78
2023-03-26T06:19:02.832Z,94576.81
2023-03-26T06:21:30.328Z,94564.94
2023-03-26T06:23:57.834Z,94554.09
2023-03-26T06:26:26.628Z,94553.63
2023-03-26T06:28:54.025Z,94550.50
2023-03-26T06:31:21.520Z,94552.59
2023-03-26T06:33:49.564Z,94529.53
2023-03-26T06:36:17.058Z,94543.53
2023-03-26T06:38:44.580Z,94531.84
2023-03-26T06:41:12.018Z,94536.50
2023-03-26T06:43:40.863Z,94543.50
2023-03-26T06:46:08.392Z,94540.63
2023-03-26T06:48:35.951Z,94529.22
2023-03-26T06:51:03.485Z,94518.38
2023-03-26T06:53:30.944Z,94514.53
2023-03-26T06:55:58.404Z,94515.53
2023-03-26T06:58:25.864Z,94504.63
2023-03-26T07:00:56.036Z,94506.19
2023-03-26T07:03:24.150Z,94498.66
2023-03-26T07:05:51.668Z,94493.50
2023-03-26T07:08:19.149Z,94497.41
2023-03-26T07:10:47.643Z,94468.22
2023-03-26T07:13:16.288Z,94460.41
2023-03-26T07:15:43.785Z,94472.06
2023-03-26T07:18:12.595Z,94466.06
2023-03-26T07:20:42.234Z,94461.91
2023-03-26T07:23:11.917Z,94456.75
2023-03-26T07:25:40.113Z,94458.81
2023-03-26T07:28:14.253Z,94452.09
2023-03-26T07:30:51.577Z,94452.94
2023-03-26T07:33:28.546Z,94445.72
2023-03-26T07:36:05.861Z,94433.84
2023-03-26T07:38:44.824Z,94406.09
2023-03-26T07:41:18.902Z,94429.19
2023-03-26T07:44:05.898Z,94418.59
2023-03-26T07:46:36.819Z,94418.06
2023-03-26T07:49:06.669Z,94404.34
2023-03-26T07:51:35.050Z,94415.25
2023-03-26T07:54:04.090Z,94413.22
2023-03-26T07:56:36.131Z,94401.81
2023-03-26T07:59:27.727Z,94416.78
2023-03-26T08:02:18.173Z,94412.09
2023-03-26T08:04:57.355Z,94422.16
2023-03-26T08:07:37.379Z,94413.34
2023-03-26T08:10:11.703Z,94411.78
2023-03-26T08:12:47.570Z,94404.75
2023-03-26T08:15:26.005Z,94392.88
2023-03-26T08:17:58.835Z,94388.25
2023-03-26T08:20:38.333Z,94383.59
2023-03-26T08:23:13.182Z,94382.34
2023-03-26T08:25:50.599Z,94376.38
2023-03-26T08:28:30.323Z,94367.91
2023-03-26T08:30:58.431Z,94377.53
2023-03-26T08:33:28.307Z,94379.88
2023-03-26T08:35:57.602Z,94375.50
2023-03-26T08:38:25.041Z,94364.94
2023-03-26T08:41:39.129Z,94366.25
2023-03-26T08:45:03.455Z,94369.63
2023-03-26T08:47:55.494Z,94359.50
2023-03-26T08:50:49.471Z,94356.41
2023-03-26T08:53:46.738Z,94355.91
2023-03-26T08:56:25.841Z,94346.56
2023-03-26T08:59:22.407Z,94341.69
2023-03-26T09:02:17.810Z,94336.50
2023-03-26T09:05:28.762Z,94333.41
2023-03-26T09:08:54.258Z,94322.53
2023-03-26T09:11:58.145Z,94322.03
2023-03-26T09:15:02.169Z,94312.19
2023-03-26T09:18:11.367Z,94306.00
2023-03-26T09:21:16.370Z,94314.78
2023-03-26T09:24:27.612Z,94292.53
2023-03-26T09:27:08.200Z,94306.22
2023-03-26T09:30:10.920Z,94304.16
2023-03-26T09:33:24.167Z,94294.59
2023-03-26T09:35:54.868Z,94288.59
2023-03-26T09:38:44.044Z,94294.28
2023-03-26T09:41:31.611Z,94298.66
2023-03-26T09:44:28.152Z,94269.66
2023-03-26T09:47:29.119Z,94284.38
2023-03-26T09:50:13.333Z,94247.69
2023-03-26T09:53:04.526Z,94288.28
2023-03-26T09:55:50.870Z,94268.41
2023-03-26T09:58:49.142Z,94287.06
2023-03-26T10:01:25.595Z,94284.16
2023-03-26T10:04:01.674Z,94287.25
2023-03-26T10:06:52.836Z,94270.97
2023-03-26T10:09:41.969Z,94281.03
2023-03-26T10:12:24.246Z,94278.97
2023-03-26T10:15:08.396Z,94272.22
2023-03-26T10:17:47.322Z,94260.28
2023-03-26T10:20:32.774Z,94260.53
2023-03-26T10:23:16.111Z,94261.28
2023-03-26T10:26:08.338Z,94263.38
2023-03-26T10:28:56.681Z,94266.75
2023-03-26T10:31:41.793Z,94269.34
2023-03-26T10:34:28.498Z,94265.47
2023-03-26T10:37:05.185Z,94266.78
2023-03-26T10:39:49.930Z,94285.94
2023-03-26T10:42:36.980Z,94285.19
2023-03-26T10:45:20.793Z,94270.69
2023-03-26T10:50:53.248Z,94273.25
2023-03-26T10:53:32.702Z,94270.63
2023-03-26T10:56:10.824Z,94236.53
2023-03-26T10:58:48.398Z,94256.97
2023-03-26T11:01:25.105Z,94275.81
2023-03-26T11:03:55.585Z,94283.91
2023-03-26T11:06:33.342Z,94250.81
2023-03-26T11:09:12.257Z,94291.44
2023-03-26T11:11:48.616Z,94243.88
2023-03-26T11:14:33.906Z,94276.75
2023-03-26T11:17:39.340Z,94290.97
2023-03-26T11:20:10.811Z,94274.66
2023-03-26T11:22:50.712Z,94271.56
2023-03-26T11:25:31.882Z,94276.50
2023-03-26T11:28:12.903Z,94248.59
2023-03-26T11:30:49.418Z,94287.88
2023-03-26T11:33:21.817Z,94300.53
2023-03-26T11:35:53.710Z,94312.97
2023-03-26T11:38:43.583Z,94303.13
2023-03-26T11:41:15.786Z,94295.13
2023-03-26T11:43:53.316Z,94286.84
2023-03-26T11:46:25.722Z,94302.38
2023-03-26T11:48:57.494Z,94299.78
2023-03-26T11:51:33.041Z,94298.47
2023-03-26T11:54:00.897Z,94293.78
2023-03-26T11:56:33.666Z,94298.94
2023-03-26T11:59:05.419Z,94245.13
2023-03-26T12:01:44.188Z,94301.91
2023-03-26T12:04:14.522Z,94279.66
2023-03-26T12:06:53.387Z,94299.50
2023-03-26T12:09:21.540Z,94252.97
2023-03-26T12:11:51.268Z,94271.84
2023-03-26T12:14:21.869Z,94320.69
2023-03-26T12:17:01.120Z,94301.19
2023-03-26T12:19:38.070Z,94293.88
2023-03-26T12:22:07.290Z,94311.69
2023-03-26T12:24:37.062Z,94250.94
2023-03-26T12:27:28.290Z,94287.38
2023-03-26T12:30:00.992Z,94263.34
2023-03-26T12:32:45.615Z,94294.03
2023-03-26T12:35:19.319Z,94289.91
2023-03-26T12:37:48.736Z,94286.84
2023-03-26T12:40:31.595Z,94298.69
2023-03-26T12:44:56.100Z,94297.88
2023-03-26T12:46:03.910Z,94311.31
2023-03-26T12:48:39.487Z,94294.78
2023-03-26T12:51:18.440Z,94309.03
2023-03-26T12:54:05.318Z,94301.06
2023-03-26T12:56:44.022Z,94322.59
2023-03-26T12:59:28.555Z,94291.16
2023-03-26T13:02:05.784Z,94265.06
2023-03-26T13:05:05.109Z,94312.06
2023-03-26T13:07:47.825Z,94233.09
2023-03-26T13:10:35.092Z,94331.56
2023-03-26T13:13:19.393Z,94325.34
2023-03-26T13:15:52.640Z,94319.09
2023-03-26T13:18:28.348Z,94301.56
2023-03-26T13:21:02.668Z,94315.22
2023-03-26T13:23:40.426Z,94292.56
2023-03-26T13:26:19.353Z,94327.31
2023-03-26T13:28:59.114Z,94336.34
2023-03-26T13:31:31.138Z,94344.16
2023-03-26T13:34:10.331Z,94335.38
2023-03-26T13:36:49.778Z,94339.28
2023-03-26T13:39:28.494Z,94328.94
2023-03-26T13:42:15.534Z,94331.00
2023-03-26T13:45:04.392Z,94338.78
2023-03-26T13:47:37.846Z,94314.22
2023-03-26T13:50:15.661Z,94341.91
2023-03-26T13:52:46.570Z,94310.66
2023-03-26T13:55:22.946Z,94338.31
2023-03-26T13:57:57.648Z,94347.91
2023-03-26T14:00:32.545Z,94356.19
2023-03-26T14:03:05.450Z,94357.97
2023-03-26T14:05:40.156Z,94357.22
2023-03-26T14:08:17.133Z,94344.78
2023-03-26T14:10:50.733Z,94357.72
2023-03-26T14:13:25.852Z,94351.53
2023-03-26T14:15:57.995Z,94361.34
2023-03-26T14:18:36.368Z,94356.44
2023-03-26T14:21:33.356Z,94355.38
2023-03-26T14:24:25.700Z,94359.53
2023-03-26T14:27:10.088Z,94367.03
2023-03-26T14:30:01.235Z,94339.88
2023-03-26T14:32:43.707Z,94366.50
2023-03-26T14:35:29.164Z,94359.75
2023-03-26T14:38:32.774Z,94360.03
2023-03-26T14:41:11.278Z,94353.31
2023-03-26T14:44:08.359Z,94359.53
2023-03-26T14:46:50.769Z,94351.00
2023-03-26T14:50:05.024Z,94368.28
2023-03-26T14:52:43.237Z,94375.56
2023-03-26T14:55:17.834Z,94373.47
2023-03-26T14:58:03.718Z,94364.91
2023-03-26T15:01:18.792Z,94379.41
2023-03-26T15:04:22.192Z,94374.75
2023-03-26T15:07:22.105Z,94382.25
2023-03-26T15:10:43.132Z,94372.94
2023-03-26T15:13:46.809Z,94368.31
2023-03-26T15:16:50.567Z,94389.00
2023-03-26T15:19:58.949Z,94392.34
2023-03-26T15:23:13.114Z,94376.56
2023-03-26T15:26:09.803Z,94391.81
2023-03-26T15:29:18.917Z,94392.34
2023-03-26T15:32:22.192Z,94392.09
2023-03-26T15:35:17.569Z,94389.00
2023-03-26T15:38:15.960Z,94405.56
2023-03-26T15:41:00.877Z,94383.56
2023-03-26T15:44:24.276Z,94412.31
2023-03-26T15:46:58.518Z,94415.16
2023-03-26T15:49:36.447Z,94416.44
2023-03-26T15:52:17.177Z,94411.28
2023-03-26T15:54:52.206Z,94421.38
2023-03-26T15:57:28.558Z,94418.81
2023-03-26T16:00:14.980Z,94421.91
2023-03-26T16:02:53.936Z,94448.03
2023-03-26T16:05:32.078Z,94453.97
2023-03-26T16:08:09.359Z,94453.16
2023-03-26T16:10:44.551Z,94452.91
2023-03-26T16:13:35.160Z,94459.84
2023-03-26T16:16:41.425Z,94464.50
2023-03-26T16:19:36.870Z,94432.38
2023-03-26T16:22:07.478Z,94467.91
2023-03-26T16:24:38.707Z,94448.47
2023-03-26T16:27:29.010Z,94472.59
2023-03-26T16:30:19.482Z,94453.13
2023-03-26T16:32:55.934Z,94489.13
2023-03-26T16:36:02.842Z,94502.22
2023-03-26T16:38:50.420Z,94506.63
2023-03-26T16:41:21.947Z,94498.00
2023-03-26T16:44:04.976Z,94507.06
2023-03-26T16:46:43.509Z,94510.38
2023-03-26T16:49:26.915Z,94505.13
2023-03-26T16:52:06.772Z,94529.38
2023-03-26T16:54:45.990Z,94530.84
2023-03-26T16:57:25.905Z,94532.66
2023-03-26T17:00:24.109Z,94536.00
2023-03-26T17:02:59.692Z,94546.59
2023-03-26T17:05:37.189Z,94554.31
2023-03-26T17:08:13.133Z,94515.91
2023-03-26T17:10:47.418Z,94562.59
2023-03-26T17:13:24.000Z,94550.72
2023-03-26T17:16:02.361Z,94559.50
2023-03-26T17:18:40.820Z,94573.47
2023-03-26T17:21:14.793Z,94577.31
2023-03-26T17:24:02.395Z,94568.56
2023-03-26T17:26:42.118Z,94581.91
2023-03-26T17:29:24.277Z,94583.47
2023-03-26T17:31:59.257Z,94591.00
2023-03-26T17:34:56.657Z,94603.16
2023-03-26T17:37:45.660Z,94596.06
2023-03-26T17:40:47.455Z,94621.19
2023-03-26T17:43:46.032Z,94610.34
2023-03-26T17:46:35.369Z,94629.97
2023-03-26T17:49:09.249Z,94631.00
2023-03-26T17:51:47.449Z,94621.34
2023-03-26T17:54:20.707Z,94650.28
2023-03-26T17:56:49.545Z,94648.00
2023-03-26T17:59:23.226Z,94662.47
2023-03-26T18:01:55.703Z,94646.59
2023-03-26T18:04:29.713Z,94673.78
2023-03-26T18:07:35.955Z,94663.94
2023-03-26T18:10:18.575Z,94661.78
2023-03-26T18:13:08.345Z,94664.69
2023-03-26T18:15:47.176Z,94672.44
2023-03-26T18:18:20.829Z,94686.69
2023-03-26T18:20:50.573Z,94701.13
2023-03-26T18:23:24.894Z,94674.88
2023-03-26T18:25:57.947Z,94674.50
2023-03-26T18:28:36.740Z,94695.44
2023-03-26T18:31:18.568Z,94708.97
2023-03-26T18:33:50.057Z,94727.97
2023-03-26T18:36:19.624Z,94757.31
2023-03-26T18:38:48.736Z,94750.78
2023-03-26T18:41:27.159Z,94736.25
2023-03-26T18:43:57.398Z,94735.00
2023-03-26T18:46:25.823Z,94760.38
2023-03-26T18:48:55.629Z,94756.53
2023-03-26T18:51:23.669Z,94698.50
2023-03-26T18:53:55.647Z,94762.59
2023-03-26T18:56:34.394Z,94740.88
2023-03-26T18:59:03.910Z,94777.25
2023-03-26T19:01:34.089Z,94725.13
2023-03-26T19:04:06.820Z,94760.28
2023-03-26T19:06:38.112Z,94794.50
2023-03-26T19:09:13.744Z,94812.03
2023-03-26T19:11:50.321Z,94796.25
2023-03-26T19:14:20.015Z,94814.00
2023-03-26T19:16:56.100Z,94816.66
2023-03-26T19:19:29.706Z,94795.56
2023-03-26T19:22:00.916Z,94812.97
2023-03-26T19:24:28.830Z,94843.78
2023-03-26T19:26:57.261Z,94835.50
2023-03-26T19:29:28.183Z,94831.75
2023-03-26T19:32:03.492Z,94796.69
2023-03-26T19:34:35.813Z,94841.16
2023-03-26T19:37:17.880Z,94810.50
2023-03-26T19:39:47.566Z,94856.84
2023-03-26T19:42:17.534Z,94846.53
2023-03-26T19:44:46.961Z,94855.81
2023-03-26T19:47:18.501Z,94846.16
2023-03-26T19:49:54.050Z,94859.13
2023-03-26T19:52:25.052Z,94882.81
2023-03-26T19:55:01.359Z,94854.97
2023-03-26T19:57:30.843Z,94881.16
2023-03-26T19:59:58.604Z,94898.09
2023-03-26T20:02:26.600Z,94861.16
2023-03-26T20:04:57.563Z,94899.28
2023-03-26T20:07:35.662Z,94903.88
2023-03-26T20:10:05.286Z,94918.00
2023-03-26T20:12:32.990Z,94926.59
2023-03-26T20:15:01.552Z,94936.47
2023-03-26T20:17:30.641Z,94928.75
2023-03-26T20:20:02.292Z,94932.31
2023-03-26T20:22:29.889Z,94950.34
2023-03-26T20:25:00.558Z,94940.50
2023-03-26T20:27:28.081Z,94951.59
2023-03-26T20:29:55.744Z,94947.31
2023-03-26T20:32:27.008Z,94952.28
2023-03-26T20:34:55.042Z,94976.22
2023-03-26T20:37:24.120Z,94964.03
2023-03-26T20:39:51.691Z,94976.13
2023-03-26T20:42:19.253Z,94931.50
2023-03-26T20:44:49.222Z,94961.25
2023-03-26T20:47:17.195Z,94989.25
2023-03-26T20:49:44.783Z,94959.78
2023-03-26T20:52:16.037Z,94947.19
2023-03-26T20:54:49.132Z,94992.28
2023-03-26T20:57:16.760Z,94985.19
2023-03-26T20:59:45.591Z,95008.38
2023-03-26T21:02:13.355Z,95017.47
2023-03-26T21:04:41.418Z,95007.50
2023-03-26T21:07:17.773Z,95005.03
2023-03-26T21:09:48.938Z,95031.47
2023-03-26T21:12:23.396Z,95013.66
2023-03-26T21:14:51.722Z,95040.00
2023-03-26T21:17:24.568Z,94993.75
2023-03-26T21:19:52.484Z,94967.56
2023-03-26T21:22:31.400Z,95055.44
2023-03-26T21:25:17.016Z,94962.28
2023-03-26T21:27:55.405Z,95064.72
2023-03-26T21:30:23.611Z,95028.34
2023-03-26T21:32:52.017Z,95068.31
2023-03-26T21:35:20.558Z,95075.47
2023-03-26T21:37:50.748Z,95091.13
2023-03-26T21:40:21.877Z,95085.09
2023-03-26T21:42:52.062Z,95095.59
2023-03-26T21:45:21.628Z,95091.88
2023-03-26T21:47:50.655Z,95102.28
2023-03-26T21:50:21.691Z,95090.50
2023-03-26T21:52:50.750Z,95101.38
2023-03-26T21:55:21.826Z,95047.63
2023-03-26T21:58:05.648Z,95117.47
2023-03-26T22:00:43.411Z,95126.19
2023-03-26T22:03:19.632Z,95126.84
2023-03-26T22:05:53.741Z,95130.78
2023-03-26T22:08:28.318Z,95119.72
2023-03-26T22:10:57.742Z,95141.84
2023-03-26T22:13:28.565Z,95128.53
2023-03-26T22:15:56.706Z,95144.44
2023-03-26T22:18:25.978Z,95149.16
2023-03-26T22:20:54.160Z,95125.75
2023-03-26T22:23:21.823Z,95170.59
2023-03-26T22:25:49.496Z,95171.25
2023-03-26T22:28:19.149Z,95141.00
2023-03-26T22:30:47.091Z,95177.59
2023-03-26T22:33:17.747Z,95181.75
2023-03-26T22:35:45.526Z,95180.84
2023-03-26T22:38:13.011Z,95178.69
2023-03-26T22:40:40.475Z,95191.56
2023-03-26T22:43:08.937Z,95202.03
2023-03-26T22:45:37.851Z,95214.19
2023-03-26T22:48:05.728Z,95211.03
2023-03-26T22:50:33.389Z,95211.69
2023-03-26T22:53:00.920Z,95222.31
2023-03-26T22:55:30.035Z,95245.97
2023-03-26T22:57:57.835Z,95231.19
2023-03-26T23:00:26.272Z,95229.06
2023-03-26T23:03:00.246Z,95248.03
2023-03-26T23:05:28.423Z,95236.81
2023-03-26T23:07:56.957Z,95253.66
2023-03-26T23:10:24.395Z,95250.47
2023-03-26T23:12:53.267Z,95262.34
2023-03-26T23:15:20.836Z,95269.47
2023-03-26T23:17:54.890Z,95267.97
2023-03-26T23:20:24.110Z,95254.97
2023-03-26T23:22:52.320Z,95269.81
2023-03-26T23:25:19.825Z,95287.22
2023-03-26T23:27:48.237Z,95280.03
2023-03-26T23:30:16.583Z,95290.56
2023-03-26T23:32:44.074Z,95296.34
2023-03-26T23:35:12.033Z,95296.34
2023-03-26T23:37:42.126Z,95231.56
2023-03-26T23:40:10.695Z,95301.16
2023-03-26T23:42:38.311Z,95314.94
2023-03-26T23:45:06.530Z,95318.75
2023-03-26T23:47:35.144Z,95325.09
2023-03-26T23:50:03.303Z,95337.34
2023-03-26T23:52:31.230Z,95340.34
2023-03-26T23:55:00.726Z,95351.19
2023-03-26T23:57:28.973Z,95353.03
2023-03-26T23:59:56.480Z,95369.00
